createdAt,value
2018-08-09T00:01:16.999Z,99.90
2018-08-09T00:04:00.989Z,99.90
2018-08-09T00:06:38.217Z,99.90
2018-08-09T00:09:12.971Z,99.90
2018-08-09T00:11:47.738Z,99.90
2018-08-09T00:14:22.416Z,99.90
2018-08-09T00:16:57.169Z,99.90
2018-08-09T00:19:36.915Z,99.90
2018-08-09T00:22:11.830Z,99.90
2018-08-09T00:24:46.573Z,99.90
2018-08-09T00:27:22.319Z,99.90
2018-08-09T00:29:57.995Z,99.90
2018-08-09T00:32:32.695Z,99.90
2018-08-09T00:35:08.430Z,99.90
2018-08-09T00:37:43.498Z,99.90
2018-08-09T00:40:18.210Z,99.90
2018-08-09T00:42:52.968Z,99.90
2018-08-09T00:45:27.724Z,99.90
2018-08-09T00:48:02.448Z,99.90
2018-08-09T00:50:37.499Z,99.90
2018-08-09T00:53:12.220Z,99.90
2018-08-09T00:55:46.952Z,99.90
2018-08-09T00:58:21.699Z,99.90
2018-08-09T01:00:56.472Z,99.90
2018-08-09T01:03:31.696Z,99.90
2018-08-09T01:06:07.447Z,99.90
2018-08-09T01:08:46.340Z,99.90
2018-08-09T01:11:21.062Z,99.90
2018-08-09T01:13:55.947Z,99.90
2018-08-09T01:16:30.971Z,99.90
2018-08-09T01:19:05.743Z,99.90
2018-08-09T01:21:40.468Z,99.90
2018-08-09T01:24:15.210Z,99.90
2018-08-09T01:26:49.951Z,99.90
2018-08-09T01:29:24.668Z,99.90
2018-08-09T01:31:59.428Z,99.90
2018-08-09T01:34:34.227Z,99.90
2018-08-09T01:37:09.992Z,99.90
2018-08-09T01:39:44.718Z,99.90
2018-08-09T01:43:32.803Z,99.90
2018-08-09T01:46:07.816Z,99.90
2018-08-09T01:48:42.516Z,99.90
2018-08-09T01:51:17.203Z,99.90
2018-08-09T01:53:53.864Z,99.90
2018-08-09T01:56:28.606Z,99.90
2018-08-09T01:59:03.378Z,99.90
2018-08-09T02:01:38.082Z,99.90
2018-08-09T02:04:12.837Z,99.90
2018-08-09T02:06:47.563Z,99.90
2018-08-09T02:09:28.503Z,99.90
2018-08-09T02:12:04.866Z,99.90
2018-08-09T02:14:40.596Z,99.90
2018-08-09T02:17:15.329Z,99.90
2018-08-09T02:19:50.043Z,99.90
2018-08-09T02:22:24.786Z,99.90
2018-08-09T02:24:59.494Z,99.90
2018-08-09T02:27:35.224Z,99.90
2018-08-09T02:30:09.955Z,99.90
2018-08-09T02:32:44.678Z,99.90
2018-08-09T02:35:20.440Z,99.90
2018-08-09T02:37:55.177Z,99.90
2018-08-09T02:40:29.898Z,99.90
2018-08-09T02:43:04.688Z,99.90
2018-08-09T02:45:39.390Z,99.90
2018-08-09T02:48:14.147Z,99.90
2018-08-09T02:50:48.875Z,99.90
2018-08-09T02:53:24.627Z,99.90
2018-08-09T02:55:59.441Z,99.90
2018-08-09T02:58:50.459Z,99.90
2018-08-09T03:01:25.280Z,99.90
2018-08-09T03:04:00.084Z,99.90
2018-08-09T03:06:34.880Z,99.90
2018-08-09T03:09:12.788Z,99.90
2018-08-09T03:11:47.635Z,99.90
2018-08-09T03:14:22.450Z,99.90
2018-08-09T03:16:57.248Z,99.90
2018-08-09T03:19:33.079Z,99.90
2018-08-09T03:22:07.963Z,99.90
2018-08-09T03:24:42.755Z,99.90
2018-08-09T03:27:17.575Z,99.90
2018-08-09T03:29:53.384Z,99.90
2018-08-09T03:32:28.511Z,99.90
2018-08-09T03:35:03.400Z,99.90
2018-08-09T03:37:39.198Z,99.90
2018-08-09T03:40:14.032Z,99.90
2018-08-09T03:42:48.824Z,99.90
2018-08-09T03:45:23.648Z,99.90
2018-08-09T03:47:59.484Z,99.90
2018-08-09T03:50:34.292Z,99.90
2018-08-09T03:53:09.115Z,99.90
2018-08-09T03:55:43.929Z,99.90
2018-08-09T03:58:18.761Z,99.90
2018-08-09T04:00:54.755Z,99.90
2018-08-09T04:03:29.571Z,99.90
2018-08-09T04:06:05.599Z,99.90
2018-08-09T04:08:40.448Z,99.90
2018-08-09T04:11:16.241Z,99.90
2018-08-09T04:13:52.024Z,99.90
2018-08-09T04:16:26.840Z,99.90
2018-08-09T04:19:01.640Z,99.90
2018-08-09T04:21:36.453Z,99.90
2018-08-09T04:24:12.239Z,99.90
2018-08-09T04:26:47.020Z,99.90
2018-08-09T04:29:22.812Z,99.90
2018-08-09T04:31:57.633Z,99.90
2018-08-09T04:34:32.430Z,99.90
2018-08-09T04:37:07.388Z,99.90
2018-08-09T04:39:42.230Z,99.90
2018-08-09T04:42:17.181Z,99.90
2018-08-09T04:44:51.954Z,99.90
2018-08-09T04:47:27.757Z,99.90
2018-08-09T04:50:03.604Z,99.90
2018-08-09T04:52:38.399Z,99.90
2018-08-09T04:55:13.189Z,99.90
2018-08-09T04:57:48.520Z,99.90
2018-08-09T05:00:23.385Z,99.90
2018-08-09T05:02:59.221Z,99.90
2018-08-09T05:05:34.047Z,99.90
2018-08-09T05:08:09.056Z,99.90
2018-08-09T05:10:43.841Z,99.90
2018-08-09T05:13:18.684Z,99.90
2018-08-09T05:15:54.514Z,99.90
2018-08-09T05:18:29.506Z,99.90
2018-08-09T05:21:05.331Z,99.90
2018-08-09T05:23:40.176Z,99.90
2018-08-09T05:26:14.981Z,99.90
2018-08-09T05:28:49.760Z,99.90
2018-08-09T05:31:24.534Z,99.90
2018-08-09T05:33:59.345Z,99.90
2018-08-09T05:36:34.163Z,99.90
2018-08-09T05:39:10.924Z,99.90
2018-08-09T05:41:45.722Z,99.90
2018-08-09T05:44:20.516Z,99.90
2018-08-09T05:46:56.328Z,99.90
2018-08-09T05:49:31.484Z,99.90
2018-08-09T05:52:06.369Z,99.90
2018-08-09T05:54:41.163Z,99.90
2018-08-09T05:57:15.991Z,99.90
2018-08-09T05:59:51.500Z,99.90
2018-08-09T06:02:26.963Z,99.90
2018-08-09T06:05:01.468Z,99.90
2018-08-09T06:07:37.163Z,99.40
2018-08-09T06:10:12.224Z,98.50
2018-08-09T06:12:47.996Z,97.50
2018-08-09T06:15:26.677Z,96.40
2018-08-09T06:18:03.663Z,94.90
2018-08-09T06:20:40.569Z,93.40
2018-08-09T06:23:16.209Z,92.20
2018-08-09T06:25:50.720Z,91.10
2018-08-09T06:28:25.602Z,87.90
2018-08-09T06:31:01.140Z,86.40
2018-08-09T06:33:35.748Z,89.20
2018-08-09T06:36:11.435Z,90.10
2018-08-09T06:38:47.064Z,90.70
2018-08-09T06:41:21.544Z,90.20
2018-08-09T06:43:56.457Z,89.80
2018-08-09T06:46:31.021Z,90.60
2018-08-09T06:49:05.582Z,90.10
2018-08-09T06:51:40.087Z,90.00
2018-08-09T06:54:15.627Z,89.50
2018-08-09T06:56:50.424Z,88.10
2018-08-09T06:59:25.325Z,88.00
2018-08-09T07:01:59.852Z,90.60
2018-08-09T07:04:34.685Z,91.10
2018-08-09T07:07:11.907Z,90.80
2018-08-09T07:09:46.716Z,91.50
2018-08-09T07:12:22.475Z,92.20
2018-08-09T07:14:57.312Z,91.70
2018-08-09T07:17:32.173Z,90.60
2018-08-09T07:20:07.467Z,85.70
2018-08-09T07:22:42.968Z,79.50
2018-08-09T07:25:17.500Z,74.50
2018-08-09T07:27:51.981Z,68.90
2018-08-09T07:30:26.473Z,64.50
2018-08-09T07:33:00.974Z,60.60
2018-08-09T07:35:35.504Z,57.10
2018-08-09T07:38:10.062Z,55.50
2018-08-09T07:40:45.504Z,54.10
2018-08-09T07:43:22.025Z,54.60
2018-08-09T07:45:57.519Z,58.20
2018-08-09T07:48:32.069Z,57.30
2018-08-09T07:51:06.728Z,54.80
2018-08-09T07:53:41.287Z,54.90
2018-08-09T07:56:15.848Z,53.50
2018-08-09T07:58:51.396Z,52.20
2018-08-09T08:01:26.037Z,51.00
2018-08-09T08:04:00.542Z,50.30
2018-08-09T08:06:35.127Z,51.30
2018-08-09T08:09:11.456Z,51.50
2018-08-09T08:11:47.001Z,49.80
2018-08-09T08:14:21.494Z,50.60
2018-08-09T08:16:56.107Z,51.60
2018-08-09T08:19:30.665Z,52.40
2018-08-09T08:22:05.238Z,53.40
2018-08-09T08:24:40.120Z,53.00
2018-08-09T08:27:14.675Z,54.50
2018-08-09T08:29:49.165Z,53.90
2018-08-09T08:32:23.756Z,52.80
2018-08-09T08:34:58.281Z,51.70
2018-08-09T08:37:32.808Z,51.20
2018-08-09T08:40:09.084Z,51.30
2018-08-09T08:42:43.618Z,49.70
2018-08-09T08:45:18.108Z,49.50
2018-08-09T08:47:52.637Z,50.10
2018-08-09T08:50:27.155Z,51.90
2018-08-09T08:53:01.709Z,51.20
2018-08-09T08:55:36.227Z,50.80
2018-08-09T08:58:11.141Z,48.30
2018-08-09T09:00:45.687Z,48.20
2018-08-09T09:03:21.135Z,48.40
2018-08-09T09:05:55.674Z,48.90
2018-08-09T09:08:31.216Z,48.70
2018-08-09T09:11:05.724Z,47.90
2018-08-09T09:13:40.551Z,48.80
2018-08-09T09:16:15.212Z,47.90
2018-08-09T09:18:50.036Z,47.80
2018-08-09T09:21:24.517Z,48.00
2018-08-09T09:23:59.050Z,48.70
2018-08-09T09:26:34.541Z,48.00
2018-08-09T09:29:09.046Z,47.60
2018-08-09T09:31:43.606Z,47.20
2018-08-09T09:34:18.088Z,46.90
2018-08-09T09:36:53.576Z,47.00
2018-08-09T09:39:28.043Z,46.30
2018-08-09T09:42:03.556Z,45.40
2018-08-09T09:44:39.077Z,46.30
2018-08-09T09:47:13.579Z,45.70
2018-08-09T09:49:48.168Z,46.40
2018-08-09T09:52:25.054Z,46.40
2018-08-09T09:55:00.109Z,46.20
2018-08-09T09:57:36.385Z,46.70
2018-08-09T10:00:16.024Z,48.00
2018-08-09T10:02:50.497Z,47.60
2018-08-09T10:05:25.026Z,47.80
2018-08-09T10:08:00.687Z,48.10
2018-08-09T10:10:35.228Z,48.50
2018-08-09T10:13:09.690Z,48.30
2018-08-09T10:15:44.202Z,49.40
2018-08-09T10:18:18.664Z,47.70
2018-08-09T10:20:54.039Z,47.70
2018-08-09T10:23:28.503Z,47.90
2018-08-09T10:26:03.030Z,48.70
2018-08-09T10:28:37.467Z,48.30
2018-08-09T10:31:13.012Z,46.70
2018-08-09T10:33:47.478Z,47.90
2018-08-09T10:36:22.025Z,46.10
2018-08-09T10:38:56.462Z,49.50
2018-08-09T10:41:31.954Z,49.00
2018-08-09T10:44:06.443Z,49.10
2018-08-09T10:46:40.961Z,47.20
2018-08-09T10:49:16.461Z,47.20
2018-08-09T10:51:50.945Z,49.70
2018-08-09T10:54:25.440Z,48.20
2018-08-09T10:56:59.958Z,48.90
2018-08-09T10:59:34.436Z,48.50
2018-08-09T11:02:08.880Z,48.70
2018-08-09T11:04:43.324Z,49.60
2018-08-09T11:07:18.836Z,49.40
2018-08-09T11:09:53.260Z,49.80
2018-08-09T11:12:27.711Z,49.60
2018-08-09T11:15:02.223Z,49.70
2018-08-09T11:17:36.890Z,50.00
2018-08-09T11:20:11.542Z,49.80
2018-08-09T11:22:46.021Z,50.50
2018-08-09T11:25:20.554Z,51.40
2018-08-09T11:27:54.972Z,51.20
2018-08-09T11:30:29.408Z,51.70
2018-08-09T11:33:03.889Z,52.90
2018-08-09T11:35:38.343Z,53.20
2018-08-09T11:38:12.848Z,53.70
2018-08-09T11:40:47.325Z,54.50
2018-08-09T11:43:21.859Z,54.70
2018-08-09T11:45:56.508Z,55.40
2018-08-09T11:48:31.992Z,54.00
2018-08-09T11:51:07.501Z,54.40
2018-08-09T11:53:41.980Z,55.40
2018-08-09T11:56:16.464Z,55.00
2018-08-09T11:58:51.048Z,54.20
2018-08-09T12:01:25.574Z,54.90
2018-08-09T12:04:00.248Z,55.20
2018-08-09T12:06:34.760Z,54.30
2018-08-09T12:09:10.797Z,56.10
2018-08-09T12:11:45.428Z,53.60
2018-08-09T12:14:29.737Z,54.10
2018-08-09T12:17:13.030Z,54.20
2018-08-09T12:19:52.615Z,55.50
2018-08-09T12:22:27.640Z,55.10
2018-08-09T12:25:02.490Z,55.70
2018-08-09T12:27:44.321Z,55.50
2018-08-09T12:30:18.834Z,56.20
2018-08-09T12:32:53.720Z,55.60
2018-08-09T12:35:30.665Z,55.30
2018-08-09T12:38:06.666Z,56.10
2018-08-09T12:40:42.442Z,56.50
2018-08-09T12:43:17.556Z,55.80
2018-08-09T12:45:54.775Z,55.50
2018-08-09T12:48:30.036Z,55.30
2018-08-09T12:51:06.369Z,56.40
2018-08-09T12:53:43.097Z,55.70
2018-08-09T12:56:19.235Z,55.20
2018-08-09T12:58:55.903Z,56.30
2018-08-09T13:01:31.649Z,56.40
2018-08-09T13:04:06.887Z,56.30
2018-08-09T13:06:41.605Z,56.80
2018-08-09T13:09:16.132Z,56.70
2018-08-09T13:11:51.626Z,56.40
2018-08-09T13:14:28.426Z,57.70
2018-08-09T13:17:02.907Z,57.30
2018-08-09T13:19:44.615Z,57.40
2018-08-09T13:22:23.371Z,57.90
2018-08-09T13:25:04.102Z,58.20
2018-08-09T13:27:42.416Z,58.90
2018-08-09T13:30:17.038Z,58.90
2018-08-09T13:32:51.667Z,58.50
2018-08-09T13:35:26.472Z,58.40
2018-08-09T13:38:20.090Z,59.00
2018-08-09T13:43:51.231Z,54.70
2018-08-09T13:46:29.710Z,54.20
2018-08-09T13:49:07.403Z,53.90
2018-08-09T13:51:42.171Z,52.50
2018-08-09T13:54:19.440Z,51.90
2018-08-09T13:56:55.416Z,52.10
2018-08-09T13:59:33.530Z,52.60
2018-08-09T14:02:09.547Z,53.30
2018-08-09T14:04:45.372Z,53.70
2018-08-09T14:07:30.989Z,53.20
2018-08-09T14:10:08.092Z,53.90
2018-08-09T14:12:44.820Z,53.60
2018-08-09T14:15:28.872Z,52.80
2018-08-09T14:18:04.936Z,51.70
2018-08-09T14:20:39.512Z,51.90
2018-08-09T14:23:15.316Z,51.30
2018-08-09T14:25:49.880Z,51.70
2018-08-09T14:28:24.752Z,52.60
2018-08-09T14:30:59.325Z,52.90
2018-08-09T14:33:33.976Z,51.80
2018-08-09T14:36:09.485Z,51.20
2018-08-09T14:38:45.156Z,51.20
2018-08-09T14:41:19.663Z,50.70
2018-08-09T14:47:08.359Z,52.40
2018-08-09T14:49:42.851Z,53.00
2018-08-09T14:52:18.061Z,52.70
2018-08-09T14:54:52.587Z,52.90
2018-08-09T14:57:27.356Z,53.30
2018-08-09T15:00:02.331Z,52.70
2018-08-09T15:02:37.221Z,53.20
2018-08-09T15:05:16.589Z,54.00
2018-08-09T15:07:51.175Z,54.60
2018-08-09T15:10:25.705Z,55.00
2018-08-09T15:13:00.218Z,55.50
2018-08-09T15:15:34.889Z,55.60
2018-08-09T15:18:10.644Z,55.90
2018-08-09T15:20:46.029Z,56.00
2018-08-09T15:23:20.585Z,55.50
2018-08-09T15:25:55.196Z,55.70
2018-08-09T15:28:31.058Z,55.70
2018-08-09T15:31:05.617Z,56.10
2018-08-09T15:33:47.195Z,56.30
2018-08-09T15:39:36.443Z,56.40
2018-08-09T15:45:03.281Z,56.80
2018-08-09T15:47:47.107Z,56.90
2018-08-09T15:50:35.126Z,57.00
2018-08-09T15:53:20.778Z,57.80
2018-08-09T15:55:55.475Z,58.90
2018-08-09T15:58:43.174Z,59.10
2018-08-09T16:01:22.943Z,59.00
2018-08-09T16:03:57.536Z,59.30
2018-08-09T16:06:36.908Z,59.40
2018-08-09T16:09:14.113Z,60.30
2018-08-09T16:12:01.589Z,59.50
2018-08-09T16:15:01.653Z,59.80
2018-08-09T16:17:58.462Z,60.30
2018-08-09T16:20:40.828Z,60.70
2018-08-09T16:23:16.175Z,61.10
2018-08-09T16:34:43.588Z,63.80
2018-08-09T16:37:19.228Z,64.10
2018-08-09T16:39:57.239Z,64.50
2018-08-09T16:42:43.071Z,65.00
2018-08-09T16:45:28.560Z,65.00
2018-08-09T16:48:03.127Z,65.00
2018-08-09T16:56:39.825Z,67.00
2018-08-09T16:59:14.368Z,67.90
2018-08-09T17:01:48.905Z,68.20
2018-08-09T17:04:23.453Z,68.70
2018-08-09T17:06:58.026Z,69.20
2018-08-09T17:09:32.584Z,69.70
2018-08-09T17:12:07.165Z,69.80
2018-08-09T17:14:41.696Z,70.60
2018-08-09T17:17:16.302Z,70.90
2018-08-09T17:23:10.532Z,71.10
2018-08-09T17:25:45.152Z,72.80
2018-08-09T17:28:20.740Z,73.30
2018-08-09T17:30:55.300Z,74.30
2018-08-09T17:33:31.786Z,74.70
2018-08-09T17:36:06.479Z,75.30
2018-08-09T17:38:41.084Z,75.80
2018-08-09T17:41:15.600Z,76.40
2018-08-09T17:43:50.119Z,77.70
2018-08-09T17:46:24.934Z,79.40
2018-08-09T17:49:01.042Z,81.10
2018-08-09T17:51:38.108Z,81.90
2018-08-09T17:54:13.916Z,83.10
2018-08-09T17:56:48.523Z,84.70
2018-08-09T17:59:46.106Z,86.00
2018-08-09T18:02:23.525Z,87.50
2018-08-09T18:04:59.475Z,89.40
2018-08-09T18:07:34.442Z,90.40
2018-08-09T18:10:15.781Z,91.20
2018-08-09T18:12:51.462Z,92.00
2018-08-09T18:15:27.484Z,92.80
2018-08-09T18:18:03.736Z,93.40
2018-08-09T18:20:39.284Z,94.00
2018-08-09T18:23:14.296Z,94.70
2018-08-09T18:25:49.071Z,95.50
2018-08-09T18:28:23.920Z,96.10
2018-08-09T18:30:58.755Z,96.80
2018-08-09T18:33:34.734Z,97.70
2018-08-09T18:36:09.631Z,98.40
2018-08-09T18:38:45.480Z,99.10
2018-08-09T18:41:20.270Z,99.70
2018-08-09T18:43:55.145Z,99.90
2018-08-09T18:46:29.901Z,99.90
2018-08-09T18:49:05.057Z,99.90
2018-08-09T18:51:41.249Z,99.90
2018-08-09T18:54:16.052Z,99.90
2018-08-09T18:56:50.894Z,99.90
2018-08-09T18:59:26.761Z,99.90
2018-08-09T19:02:02.583Z,99.90
2018-08-09T19:04:37.467Z,99.90
2018-08-09T19:07:12.252Z,99.90
2018-08-09T19:09:47.187Z,99.90
2018-08-09T19:12:21.964Z,99.90
2018-08-09T19:14:57.109Z,99.90
2018-08-09T19:17:32.033Z,99.90
2018-08-09T19:20:08.669Z,99.90
2018-08-09T19:22:44.896Z,99.90
2018-08-09T19:25:20.784Z,99.90
2018-08-09T19:27:55.657Z,99.90
2018-08-09T19:30:32.125Z,99.90
2018-08-09T19:33:09.731Z,99.90
2018-08-09T19:35:45.749Z,99.90
2018-08-09T19:38:20.876Z,99.90
2018-08-09T19:40:55.675Z,99.90
2018-08-09T19:43:31.590Z,99.90
2018-08-09T19:46:23.979Z,99.90
2018-08-09T19:49:03.684Z,99.90
2018-08-09T19:51:38.530Z,99.90
2018-08-09T19:54:13.325Z,99.90
2018-08-09T19:56:49.237Z,99.90
2018-08-09T19:59:24.068Z,99.90
2018-08-09T20:01:59.933Z,99.90
2018-08-09T20:04:36.289Z,99.90
2018-08-09T20:07:11.244Z,99.90
2018-08-09T20:09:47.029Z,99.90
2018-08-09T20:12:22.073Z,99.90
2018-08-09T20:14:57.901Z,99.90
2018-08-09T20:17:32.719Z,99.90
2018-08-09T20:20:09.222Z,99.90
2018-08-09T20:22:44.161Z,99.90
2018-08-09T20:25:19.103Z,99.90
2018-08-09T20:27:55.008Z,99.90
2018-08-09T20:30:29.975Z,99.90
2018-08-09T20:33:04.820Z,99.90
2018-08-09T20:35:39.684Z,99.90
2018-08-09T20:38:14.613Z,99.90
2018-08-09T20:40:49.415Z,99.90
2018-08-09T20:43:24.260Z,99.90
2018-08-09T20:45:59.074Z,99.90
2018-08-09T20:48:33.977Z,99.90
2018-08-09T20:51:09.803Z,99.90
2018-08-09T20:56:36.408Z,99.90
2018-08-09T20:59:12.198Z,99.90
2018-08-09T21:02:09.400Z,99.90
2018-08-09T21:04:52.893Z,99.90
2018-08-09T21:07:30.194Z,99.90
2018-08-09T21:10:14.038Z,99.90
2018-08-09T21:13:08.386Z,99.90
2018-08-09T21:15:46.347Z,99.90
2018-08-09T21:18:33.928Z,99.90
2018-08-09T21:21:09.179Z,99.90
2018-08-09T21:23:47.319Z,99.90
2018-08-09T21:26:22.131Z,99.90
2018-08-09T21:28:58.432Z,99.90
2018-08-09T21:31:34.396Z,99.90
2018-08-09T21:34:09.344Z,99.90
2018-08-09T21:36:45.573Z,99.90
2018-08-09T21:39:20.414Z,99.90
2018-08-09T21:41:55.217Z,99.90
2018-08-09T21:44:30.031Z,99.90
2018-08-09T21:47:04.865Z,99.90
2018-08-09T21:49:39.746Z,99.90
2018-08-09T21:52:15.445Z,99.90
2018-08-09T21:54:50.290Z,99.90
2018-08-09T21:57:26.139Z,99.90
2018-08-09T22:00:00.997Z,99.90
2018-08-09T22:02:35.842Z,99.90
2018-08-09T22:05:15.732Z,99.90
2018-08-09T22:07:55.896Z,99.90
2018-08-09T22:10:36.081Z,99.90
2018-08-09T22:13:16.426Z,99.90
2018-08-09T22:15:56.425Z,99.90
2018-08-09T22:18:36.413Z,99.90
2018-08-09T22:21:16.624Z,99.90
2018-08-09T22:23:51.497Z,99.90
2018-08-09T22:26:26.396Z,99.90
2018-08-09T22:29:01.198Z,99.90
2018-08-09T22:31:36.012Z,99.90
2018-08-09T22:34:10.824Z,99.90
2018-08-09T22:36:45.992Z,99.90
2018-08-09T22:39:21.848Z,99.90
2018-08-09T22:41:56.712Z,99.90
2018-08-09T22:44:31.513Z,99.90
2018-08-09T22:47:06.315Z,99.90
2018-08-09T22:49:41.142Z,99.90
2018-08-09T22:52:15.995Z,99.90
2018-08-09T22:54:51.905Z,99.90
2018-08-09T22:57:26.729Z,99.90
2018-08-09T23:00:01.878Z,99.90
2018-08-09T23:02:36.732Z,99.90
2018-08-09T23:05:12.660Z,99.90
2018-08-09T23:07:47.637Z,99.90
2018-08-09T23:10:22.793Z,99.90
2018-08-09T23:12:57.648Z,99.90
2018-08-09T23:15:32.504Z,99.90
2018-08-09T23:18:07.766Z,99.90
2018-08-09T23:20:42.628Z,99.90
2018-08-09T23:23:17.678Z,99.90
2018-08-09T23:25:53.543Z,99.90
2018-08-09T23:28:28.384Z,99.90
2018-08-09T23:31:03.192Z,99.90
2018-08-09T23:33:37.986Z,99.90
2018-08-09T23:36:12.800Z,99.90
2018-08-09T23:38:47.749Z,99.90
2018-08-09T23:41:22.937Z,99.90
2018-08-09T23:43:57.764Z,99.90
2018-08-09T23:46:32.612Z,99.90
2018-08-09T23:49:07.498Z,99.90
2018-08-09T23:51:42.319Z,99.90
2018-08-09T23:54:17.053Z,99.90
2018-08-09T23:56:51.848Z,99.90
2018-08-09T23:59:26.716Z,99.90
